Time;durP1;ratioP1;P1;durP2;ratioP2;P2;SDS_P1;SDS_P2;PMS_P1;PMS_P2;Temp;Humidity;BMP_temperature;BMP_pressure;BME280_temperature;BME280_humidity;BME280_pressure;Samples;Min_cycle;Max_cycle;Signal;HPM_P1;HPM_P2
2021/06/15 00:01:39;;;;;;;20.08;8.83;;;;;;;9.63;82.02;98488.59;1759084;80;21496;-78
2021/06/15 00:04:05;;;;;;;11.08;6.87;;;;;;;9.64;81.52;98492.92;1764734;80;20902;-78
2021/06/15 00:06:31;;;;;;;18.70;7.58;;;;;;;9.63;81.40;98494.00;1787798;80;20953;-78
2021/06/15 00:08:58;;;;;;;14.23;7.62;;;;;;;9.55;81.81;98494.50;1787718;80;20919;-78
2021/06/15 00:11:25;;;;;;;11.70;6.40;;;;;;;9.57;80.92;98497.75;1765106;81;21021;-78
2021/06/15 00:13:51;;;;;;;10.68;6.15;;;;;;;9.49;82.03;98492.86;1759084;80;21601;-78
2021/06/15 00:16:17;;;;;;;11.03;7.62;;;;;;;9.49;81.37;98495.02;1787799;80;20950;-78
2021/06/15 00:18:43;;;;;;;10.63;6.50;;;;;;;9.47;80.74;98489.58;1787836;80;20969;-78
2021/06/15 00:21:09;;;;;;;11.08;6.05;;;;;;;9.46;80.60;98490.11;1787839;79;21025;-78
2021/06/15 00:23:36;;;;;;;10.70;6.80;;;;;;;9.45;80.49;98480.91;1787850;80;20914;-78
2021/06/15 00:26:02;;;;;;;10.48;7.67;;;;;;;9.40;80.69;98475.45;1765253;80;21035;-78
2021/06/15 00:28:27;;;;;;;13.78;7.47;;;;;;;9.35;81.32;98483.56;1787693;80;20848;-78
2021/06/15 00:30:53;;;;;;;11.50;9.05;;;;;;;9.32;81.31;98479.49;1764959;81;20905;-78
2021/06/15 00:33:19;;;;;;;12.78;7.53;;;;;;;9.29;80.87;98482.16;1787788;80;21441;-78
2021/06/15 00:35:45;;;;;;;11.18;7.10;;;;;;;9.24;81.44;98487.55;1787965;80;20894;-78
2021/06/15 00:38:12;;;;;;;12.37;6.55;;;;;;;9.19;81.89;98484.80;1787518;80;20996;-78
2021/06/15 00:40:38;;;;;;;11.95;7.37;;;;;;;9.13;82.26;98485.01;1765182;81;21019;-78
2021/06/15 00:43:04;;;;;;;12.13;7.95;;;;;;;9.13;81.85;98481.77;1790151;79;20955;-78
2021/06/15 00:45:32;;;;;;;11.28;7.17;;;;;;;9.12;82.65;98476.63;1768000;81;20949;-78
2021/06/15 00:47:58;;;;;;;13.03;6.70;;;;;;;9.11;81.45;98483.92;1799065;79;21005;-77
2021/06/15 00:50:25;;;;;;;11.93;6.92;;;;;;;9.03;82.03;98482.50;1767972;81;21020;-77
2021/06/15 00:52:52;;;;;;;10.93;6.95;;;;;;;9.02;81.44;98482.23;1798974;79;21462;-77
2021/06/15 00:55:21;;;;;;;13.68;8.13;;;;;;;8.92;82.64;98475.39;1768159;81;21064;-77
2021/06/15 00:57:47;;;;;;;14.53;6.60;;;;;;;8.93;82.38;98478.91;1772523;79;20949;-77
2021/06/15 01:00:14;;;;;;;10.03;6.95;;;;;;;8.94;82.31;98480.00;1768125;81;21008;-77
2021/06/15 01:02:40;;;;;;;12.28;6.72;;;;;;;8.98;83.25;98484.37;1799164;79;21259;-77
2021/06/15 01:05:09;;;;;;;11.73;6.45;;;;;;;8.95;83.04;98478.92;1767733;80;20861;-77
2021/06/15 01:08:05;;;;;;;10.80;6.33;;;;;;;8.87;82.47;98475.88;1799311;79;20929;-77
2021/06/15 01:10:46;;;;;;;12.45;6.87;;;;;;;8.78;82.27;98468.78;1768204;81;20981;-78
2021/06/15 01:13:29;;;;;;;13.55;7.25;;;;;;;8.68;82.03;98468.16;1799082;79;20918;-78
2021/06/15 01:16:17;;;;;;;9.90;7.30;;;;;;;8.66;80.85;98469.49;1767922;81;21446;-78
2021/06/15 01:19:01;;;;;;;12.00;7.55;;;;;;;8.54;82.26;98462.88;1768109;80;20910;-78
2021/06/15 01:21:27;;;;;;;10.15;7.45;;;;;;;8.49;82.63;98461.50;1799028;79;21142;-78
2021/06/15 01:24:03;;;;;;;9.83;5.65;;;;;;;8.49;81.98;98465.55;1767932;80;20968;-78
2021/06/15 01:27:02;;;;;;;13.25;6.78;;;;;;;8.51;80.64;98461.23;1799227;79;21099;-78
2021/06/15 01:29:30;;;;;;;;;;;;;;;8.51;82.47;98464.75;1770258;80;21790;-79
2021/06/15 01:32:02;;;;;;;14.55;7.20;;;;;;;8.45;82.64;98459.83;1799208;79;20132;-79
2021/06/15 01:34:34;;;;;;;7.83;5.45;;;;;;;8.44;82.19;98454.14;1767829;80;21493;-79
2021/06/15 01:37:18;;;;;;;16.15;6.45;;;;;;;8.38;81.96;98448.44;1773064;79;20957;-79
2021/06/15 01:39:51;;;;;;;10.72;6.83;;;;;;;8.31;82.02;98445.63;1758318;80;20954;-78
2021/06/15 01:42:35;;;;;;;12.65;6.92;;;;;;;8.30;81.15;98443.46;1782982;80;21696;-78
2021/06/15 01:45:27;;;;;;;15.98;6.60;;;;;;;8.26;80.70;98438.81;1782272;80;21366;-78
2021/06/15 01:48:08;;;;;;;13.70;6.47;;;;;;;8.18;80.23;98442.77;1782408;80;20930;-78
2021/06/15 01:50:36;;;;;;;8.78;6.70;;;;;;;8.09;82.84;98442.95;1782664;80;20982;-79
2021/06/15 01:53:05;;;;;;;12.07;7.03;;;;;;;8.07;81.41;98447.25;1782554;80;20957;-79
2021/06/15 01:55:31;;;;;;;11.83;6.85;;;;;;;8.02;82.34;98442.33;1782668;80;26931;-79
2021/06/15 01:57:58;;;;;;;9.83;6.45;;;;;;;8.00;82.46;98442.58;1782353;80;21006;-79
2021/06/15 02:00:24;;;;;;;10.40;7.42;;;;;;;8.02;82.12;98434.23;1765091;81;21075;-79
2021/06/15 02:02:50;;;;;;;13.58;6.95;;;;;;;8.05;82.89;98440.48;1787824;80;20985;-79
2021/06/15 02:05:19;;;;;;;11.60;7.78;;;;;;;8.09;81.74;98450.51;1788094;80;21028;-79
2021/06/15 02:07:45;;;;;;;14.18;7.58;;;;;;;8.13;82.13;98456.23;1764934;81;20966;-79
2021/06/15 02:10:15;;;;;;;11.60;7.42;;;;;;;8.17;81.61;98450.59;1758821;80;21063;-78
2021/06/15 02:12:46;;;;;;;9.43;6.72;;;;;;;8.19;83.14;98448.45;1787723;79;21478;-78
2021/06/15 02:15:14;;;;;;;14.30;7.50;;;;;;;8.24;83.70;98444.47;1748341;81;21036;-78
2021/06/15 02:17:47;;;;;;;9.20;5.72;;;;;;;8.33;81.96;98442.12;1788109;80;20957;-78
2021/06/15 02:20:14;;;;;;;9.55;5.45;;;;;;;8.34;82.08;98437.81;1787910;80;21816;-78
2021/06/15 02:22:44;;;;;;;8.55;6.05;;;;;;;8.31;82.57;98442.92;1787683;80;20973;-78
2021/06/15 02:25:11;;;;;;;16.65;6.67;;;;;;;8.26;82.49;98442.86;1787475;80;20997;-78
2021/06/15 02:27:37;;;;;;;12.47;6.78;;;;;;;8.19;81.57;98445.22;1787736;79;20973;-78
2021/06/15 02:30:04;;;;;;;13.55;7.35;;;;;;;8.18;82.46;98435.48;1787499;80;20953;-78
2021/06/15 02:32:33;;;;;;;11.38;7.42;;;;;;;8.18;82.45;98434.67;1788127;79;21434;-78
2021/06/15 02:35:01;;;;;;;9.05;6.25;;;;;;;8.19;83.38;98439.81;1787748;79;21071;-78
2021/06/15 02:37:31;;;;;;;9.38;6.70;;;;;;;8.23;82.47;98433.93;1759610;80;20949;-78
2021/06/15 02:39:58;;;;;;;11.28;6.40;;;;;;;8.18;82.35;98431.44;1786754;80;21322;-78
2021/06/15 02:42:24;;;;;;;10.40;6.92;;;;;;;8.20;82.05;98418.53;1747541;81;20909;-78
2021/06/15 02:44:57;;;;;;;10.43;5.58;;;;;;;8.23;81.38;98429.88;1787570;80;21116;-78
2021/06/15 02:47:24;;;;;;;10.78;7.05;;;;;;;8.17;82.82;98435.21;1788020;80;20910;-77
2021/06/15 02:49:58;;;;;;;9.63;5.67;;;;;;;8.14;81.90;98436.27;1787690;80;21033;-77
2021/06/15 02:52:44;;;;;;;11.22;7.10;;;;;;;8.11;81.52;98434.87;1765119;80;20905;-78
2021/06/15 02:55:16;;;;;;;9.08;6.25;;;;;;;8.09;84.34;98430.80;1787708;80;21004;-78
2021/06/15 02:57:42;;;;;;;9.85;6.40;;;;;;;8.17;83.38;98429.00;1765069;81;21751;-78
2021/06/15 03:00:09;;;;;;;10.38;6.28;;;;;;;8.20;82.66;98431.18;1787760;80;21262;-78
2021/06/15 03:02:35;;;;;;;9.43;5.47;;;;;;;8.26;81.39;98435.58;1787884;79;20913;-78
2021/06/15 03:05:08;;;;;;;14.28;9.33;;;;;;;8.25;82.11;98431.78;1787749;80;20997;-78
2021/06/15 03:07:34;;;;;;;7.53;5.50;;;;;;;8.22;81.92;98442.56;1787061;80;20961;-78
2021/06/15 03:10:02;;;;;;;10.18;6.30;;;;;;;8.23;81.66;98429.88;1764941;80;21248;-78
2021/06/15 03:12:29;;;;;;;10.43;6.47;;;;;;;8.24;81.69;98437.72;1787846;80;21063;-78
2021/06/15 03:15:08;;;;;;;10.58;6.70;;;;;;;8.28;82.79;98439.36;1787637;80;20925;-78
2021/06/15 03:17:38;;;;;;;7.78;5.80;;;;;;;8.27;83.14;98441.25;1787932;80;21355;-78
2021/06/15 03:20:09;;;;;;;7.80;6.05;;;;;;;8.20;82.20;98437.93;1764885;80;21363;-78
2021/06/15 03:22:58;;;;;;;13.15;7.05;;;;;;;8.21;82.14;98440.94;1788204;80;21161;-77
2021/06/15 03:25:34;;;;;;;12.80;6.87;;;;;;;8.21;81.98;98434.19;1796949;79;21016;-78
2021/06/15 03:28:08;;;;;;;12.25;6.50;;;;;;;8.27;81.80;98436.38;1787686;80;21386;-77
2021/06/15 03:30:35;;;;;;;13.72;9.25;;;;;;;8.26;81.70;98433.41;1765410;81;21365;-78
2021/06/15 03:33:10;;;;;;;8.98;5.80;;;;;;;8.23;81.40;98434.74;1787985;80;20969;-78
2021/06/15 03:35:40;;;;;;;11.12;6.17;;;;;;;8.32;80.69;98437.27;1765101;80;20989;-77
2021/06/15 03:38:07;;;;;;;11.85;6.60;;;;;;;8.21;81.17;98432.84;1784791;80;21163;-77
2021/06/15 03:40:36;;;;;;;7.28;5.47;;;;;;;8.32;81.05;98432.41;1787971;80;21418;-77
2021/06/15 03:43:04;;;;;;;8.18;5.42;;;;;;;8.38;81.90;98432.77;1787839;80;21378;-77
2021/06/15 03:45:34;;;;;;;10.13;5.80;;;;;;;8.55;81.00;98427.26;1797409;79;20932;-77
2021/06/15 03:48:01;;;;;;;7.25;5.17;;;;;;;8.66;81.48;98428.43;1767794;80;21345;-78
2021/06/15 03:50:27;;;;;;;12.43;6.03;;;;;;;8.86;80.74;98425.07;1799378;79;21414;-78
2021/06/15 03:52:56;;;;;;;11.63;6.33;;;;;;;8.97;81.46;98436.77;1768126;80;20896;-78
2021/06/15 03:55:23;;;;;;;7.72;6.17;;;;;;;9.13;80.76;98431.75;1799602;79;21363;-78
2021/06/15 03:57:49;;;;;;;10.35;6.45;;;;;;;9.30;80.21;98423.48;1768024;80;21039;-78
2021/06/15 04:00:18;;;;;;;9.23;6.42;;;;;;;9.45;79.78;98439.80;1799422;79;21012;-78
2021/06/15 04:02:47;;;;;;;9.10;6.55;;;;;;;9.56;79.33;98437.95;1767840;81;20957;-78
2021/06/15 04:05:16;;;;;;;7.70;5.33;;;;;;;9.63;78.94;98441.24;1799456;79;21410;-78
2021/06/15 04:07:43;;;;;;;13.03;6.03;;;;;;;9.62;78.30;98446.38;1752712;81;20964;-77
2021/06/15 04:10:12;;;;;;;12.25;6.35;;;;;;;9.69;77.95;98453.73;1799523;79;21343;-77
2021/06/15 04:12:38;;;;;;;13.40;8.58;;;;;;;9.81;77.95;98458.38;1767422;80;21299;-78
2021/06/15 04:15:09;;;;;;;10.70;7.12;;;;;;;9.97;77.57;98457.91;1798105;79;20899;-78
2021/06/15 04:17:37;;;;;;;11.80;6.87;;;;;;;10.11;77.75;98451.47;1753168;81;20977;-78
2021/06/15 04:20:05;;;;;;;9.67;6.00;;;;;;;10.34;77.79;98452.89;1799324;79;20922;-78
2021/06/15 04:22:35;;;;;;;9.28;6.03;;;;;;;10.58;77.56;98455.92;1768031;81;20913;-78
2021/06/15 04:25:05;;;;;;;12.70;6.08;;;;;;;10.71;76.74;98449.45;1799039;79;21150;-78
2021/06/15 04:27:31;;;;;;;11.30;6.95;;;;;;;11.05;76.59;98447.56;1767975;80;21350;-78
2021/06/15 04:29:57;;;;;;;11.22;6.45;;;;;;;11.05;76.59;98447.56;1799152;79;20921;-78
2021/06/15 04:32:48;;;;;;;10.78;6.47;;;;;;;11.28;75.52;98446.19;1768091;81;21012;-78
2021/06/15 04:35:14;;;;;;;12.60;6.62;;;;;;;11.35;75.44;98441.81;1799195;79;20969;-78
2021/06/15 04:37:40;;;;;;;12.15;6.95;;;;;;;11.45;75.19;98443.98;1768128;80;20999;-78
2021/06/15 04:40:17;;;;;;;12.93;6.45;;;;;;;11.63;74.38;98438.51;1799200;79;20906;-78
2021/06/15 04:43:00;;;;;;;10.35;5.75;;;;;;;11.68;73.85;98435.76;1768081;81;20969;-77
2021/06/15 04:45:32;;;;;;;11.78;6.58;;;;;;;11.80;73.47;98432.78;1799191;79;21338;-78
2021/06/15 04:48:06;;;;;;;8.90;7.10;;;;;;;11.76;73.15;98431.12;1768065;80;20902;-77
2021/06/15 04:50:33;;;;;;;10.45;6.55;;;;;;;11.82;73.02;98430.59;1799320;79;21114;-77
2021/06/15 04:53:02;;;;;;;11.35;6.20;;;;;;;11.98;73.44;98431.34;1767959;80;20992;-77
2021/06/15 04:55:29;;;;;;;11.80;7.45;;;;;;;12.21;72.30;98429.86;1799546;79;20988;-77
2021/06/15 04:57:56;;;;;;;15.83;7.28;;;;;;;12.30;72.82;98432.25;1752654;80;21021;-77
2021/06/15 05:00:24;;;;;;;8.83;5.70;;;;;;;12.55;72.79;98436.16;1799377;79;20922;-77
2021/06/15 05:02:50;;;;;;;8.60;5.87;;;;;;;12.74;71.59;98436.88;1767915;80;21110;-77
2021/06/15 05:05:16;;;;;;;14.75;5.37;;;;;;;12.75;71.37;98433.87;1799283;79;21016;-77
2021/06/15 05:07:42;;;;;;;7.97;5.60;;;;;;;12.87;71.71;98433.49;1768212;80;20922;-77
2021/06/15 05:10:10;;;;;;;11.20;5.47;;;;;;;12.95;71.63;98433.70;1799032;79;21495;-77
2021/06/15 05:12:38;;;;;;;9.45;5.40;;;;;;;13.13;70.83;98442.25;1768007;80;21460;-77
2021/06/15 05:15:07;;;;;;;9.45;5.83;;;;;;;13.13;71.48;98438.98;1799144;79;21072;-77
2021/06/15 05:17:33;;;;;;;8.75;5.05;;;;;;;13.32;70.43;98439.09;1768096;81;20969;-77
2021/06/15 05:19:59;;;;;;;10.48;5.80;;;;;;;13.39;70.31;98440.94;1799031;79;20941;-77
2021/06/15 05:22:31;;;;;;;7.95;5.75;;;;;;;13.56;69.90;98437.77;1768081;81;21505;-77
2021/06/15 05:24:59;;;;;;;8.80;6.22;;;;;;;13.71;69.57;98436.25;1799019;79;20905;-77
2021/06/15 05:27:33;;;;;;;14.83;5.90;;;;;;;13.83;69.55;98430.37;1768231;81;21662;-76
2021/06/15 05:30:00;;;;;;;9.70;6.60;;;;;;;14.09;70.18;98437.69;1798703;79;21016;-78
2021/06/15 05:32:28;;;;;;;7.28;5.95;;;;;;;14.35;68.74;98436.23;1768095;81;20949;-78
2021/06/15 05:34:54;;;;;;;11.13;6.47;;;;;;;14.52;68.26;98433.59;1772287;79;20942;-78
2021/06/15 05:37:20;;;;;;;28.95;9.05;;;;;;;14.71;67.12;98428.14;1768055;81;21528;-78
2021/06/15 05:39:46;;;;;;;9.63;5.85;;;;;;;14.83;66.33;98435.30;1772047;79;20897;-78
2021/06/15 05:42:12;;;;;;;15.58;6.92;;;;;;;14.90;66.16;98440.64;1767989;81;21547;-77
2021/06/15 05:44:40;;;;;;;10.70;5.87;;;;;;;15.04;65.02;98435.77;1796062;79;21088;-78
2021/06/15 05:47:07;;;;;;;7.90;5.37;;;;;;;15.16;64.58;98441.59;1773384;80;20949;-78
2021/06/15 05:49:33;;;;;;;12.55;6.35;;;;;;;15.22;64.63;98439.84;1787759;80;21315;-77
2021/06/15 05:52:02;;;;;;;16.42;7.35;;;;;;;15.27;65.25;98444.39;1733987;80;22183;-77
2021/06/15 05:54:29;;;;;;;16.82;11.00;;;;;;;15.47;65.06;98439.95;1783386;80;21047;-77
2021/06/15 05:56:55;;;;;;;14.03;10.65;;;;;;;15.62;65.52;98447.05;1765116;80;21013;-78
2021/06/15 05:59:22;;;;;;;13.50;9.13;;;;;;;15.92;65.07;98445.66;1787665;80;20957;-77
2021/06/15 06:01:48;;;;;;;18.27;7.55;;;;;;;16.13;64.56;98448.77;1787834;79;21460;-77
2021/06/15 06:04:16;;;;;;;11.08;7.25;;;;;;;16.28;63.20;98453.11;1787722;80;21923;-77
2021/06/15 06:09:27;;;;;;;7.90;5.62;;;;;;;16.45;64.04;98457.95;1787604;80;20902;-76
2021/06/15 06:11:53;;;;;;;10.40;5.40;;;;;;;16.61;62.95;98455.94;1787578;80;21473;-77
2021/06/15 06:14:19;;;;;;;8.45;5.03;;;;;;;16.70;62.45;98455.23;1787562;80;20846;-77
2021/06/15 06:16:45;;;;;;;10.00;4.70;;;;;;;16.85;61.89;98456.25;1787771;80;21293;-76
2021/06/15 06:19:14;;;;;;;7.83;4.78;;;;;;;17.09;61.45;98464.13;1787566;80;20973;-76
2021/06/15 06:21:41;;;;;;;13.18;5.10;;;;;;;17.20;60.20;98464.15;1773615;80;20977;-76
2021/06/15 06:24:07;;;;;;;6.87;5.12;;;;;;;17.41;61.06;98463.87;1758837;80;20925;-76
2021/06/15 06:26:33;;;;;;;8.20;5.62;;;;;;;17.66;60.20;98469.23;1787743;80;21018;-76
2021/06/15 06:29:00;;;;;;;12.53;8.05;;;;;;;17.79;59.31;98469.50;1787695;80;21117;-76
2021/06/15 06:31:26;;;;;;;8.78;6.03;;;;;;;17.96;58.97;98461.35;1764939;80;21075;-76
2021/06/15 06:33:51;;;;;;;11.78;5.70;;;;;;;18.11;59.12;98465.00;1787728;80;20878;-76
2021/06/15 06:36:17;;;;;;;9.88;6.10;;;;;;;18.25;57.57;98462.95;1787844;80;20928;-76
2021/06/15 06:38:48;;;;;;;8.85;5.08;;;;;;;18.26;58.20;98471.99;1784691;80;20976;-76
2021/06/15 06:41:11;;;;;;;5.78;4.22;;;;;;;18.46;57.40;98463.74;1758258;80;22805;-77
2021/06/15 06:43:37;;;;;;;12.03;5.35;;;;;;;18.57;57.33;98460.36;1787621;80;20976;-77
2021/06/15 06:46:03;;;;;;;12.78;5.35;;;;;;;18.73;57.26;98457.18;1794175;79;20914;-77
2021/06/15 06:48:29;;;;;;;11.35;5.30;;;;;;;18.72;52.45;98450.08;1752685;81;21453;-77
2021/06/15 06:50:55;;;;;;;10.48;5.35;;;;;;;18.92;55.04;98459.59;1799354;79;21003;-77
2021/06/15 06:53:21;;;;;;;11.35;5.30;;;;;;;19.14;55.12;98451.16;1767944;80;20993;-77
2021/06/15 06:55:47;;;;;;;11.28;4.92;;;;;;;19.25;54.27;98446.96;1772295;79;21027;-77
2021/06/15 06:58:13;;;;;;;6.62;5.10;;;;;;;19.17;50.94;98447.78;1778468;80;21108;-77
2021/06/15 07:00:39;;;;;;;8.85;5.35;;;;;;;19.33;52.56;98442.59;1799401;79;20936;-77
2021/06/15 07:03:05;;;;;;;5.50;4.00;;;;;;;19.41;50.57;98435.70;1752705;80;21032;-77
2021/06/15 07:05:31;;;;;;;9.15;5.60;;;;;;;19.53;52.53;98437.75;1799254;79;21133;-77
2021/06/15 07:07:57;;;;;;;7.00;5.10;;;;;;;19.64;52.14;98436.84;1767847;80;20872;-77
2021/06/15 07:10:23;;;;;;;6.50;4.17;;;;;;;19.84;51.91;98438.09;1772344;79;20964;-77
2021/06/15 07:12:49;;;;;;;10.55;5.83;;;;;;;20.07;50.77;98433.09;1767918;80;21027;-77
2021/06/15 07:15:16;;;;;;;10.63;4.80;;;;;;;20.03;50.48;98435.72;1799079;79;20945;-77
2021/06/15 07:17:42;;;;;;;8.15;4.53;;;;;;;20.12;49.49;98436.48;1768010;80;21386;-77
2021/06/15 07:20:10;;;;;;;10.03;4.15;;;;;;;20.12;50.60;98438.42;1799053;79;21004;-77
2021/06/15 07:22:36;;;;;;;10.15;5.20;;;;;;;20.42;49.04;98437.25;1767952;80;20977;-77
2021/06/15 07:25:04;;;;;;;7.28;4.40;;;;;;;20.72;49.05;98437.24;1799158;79;20949;-77
2021/06/15 07:27:30;;;;;;;6.22;3.65;;;;;;;20.70;48.64;98436.78;1753238;81;20977;-77
2021/06/15 07:29:56;;;;;;;7.60;3.80;;;;;;;20.91;48.59;98426.55;1799194;79;21902;-77
2021/06/15 07:32:22;;;;;;;8.53;3.72;;;;;;;21.30;48.70;98428.56;1768091;80;20845;-77
2021/06/15 07:34:48;;;;;;;6.05;3.90;;;;;;;21.56;46.09;98433.80;1799140;79;20900;-77
2021/06/15 07:37:14;;;;;;;7.28;3.87;;;;;;;21.84;47.47;98422.91;1752990;81;20861;-77
2021/06/15 07:39:40;;;;;;;5.95;3.95;;;;;;;22.40;45.81;98423.15;1799260;79;21369;-77
2021/06/15 07:42:07;;;;;;;5.00;3.50;;;;;;;22.94;44.07;98419.45;1768093;81;21149;-77
2021/06/15 07:44:33;;;;;;;5.10;3.42;;;;;;;23.46;44.58;98414.35;1798347;79;20887;-77
2021/06/15 07:46:59;;;;;;;6.78;2.90;;;;;;;23.96;44.18;98416.23;1765802;81;21052;-77
2021/06/15 07:49:25;;;;;;;8.70;3.65;;;;;;;24.39;42.70;98409.75;1765701;80;20942;-77
2021/06/15 07:51:51;;;;;;;6.53;3.33;;;;;;;25.19;43.05;98401.34;1797530;79;21056;-77
2021/06/15 07:54:17;;;;;;;4.87;3.15;;;;;;;25.75;41.78;98397.44;1765826;80;21164;-78
2021/06/15 07:56:43;;;;;;;5.45;2.33;;;;;;;26.06;38.42;98397.75;1797732;79;21016;-78
2021/06/15 07:59:09;;;;;;;8.15;3.30;;;;;;;26.14;35.82;98400.82;1765781;80;20960;-77
2021/06/15 08:01:35;;;;;;;6.28;3.40;;;;;;;26.62;36.48;98389.23;1797567;79;21033;-77
2021/06/15 08:04:01;;;;;;;4.87;2.95;;;;;;;26.66;37.46;98394.23;1765795;81;21618;-77
2021/06/15 08:06:27;;;;;;;3.17;2.10;;;;;;;26.59;37.26;98396.95;1797879;79;21084;-77
2021/06/15 08:08:53;;;;;;;3.47;2.20;;;;;;;27.02;35.82;98392.72;1765816;80;21307;-78
2021/06/15 08:11:19;;;;;;;4.28;2.30;;;;;;;27.51;33.97;98395.23;1797525;79;20909;-78
2021/06/15 08:13:46;;;;;;;3.80;2.60;;;;;;;27.17;32.63;98388.92;1765582;81;20888;-78
2021/06/15 08:16:12;;;;;;;3.20;2.02;;;;;;;27.34;32.86;98381.95;1797952;79;20901;-78
2021/06/15 08:18:38;;;;;;;5.35;2.37;;;;;;;27.85;31.44;98392.98;1766317;80;21616;-78
2021/06/15 08:21:05;;;;;;;4.95;2.65;;;;;;;27.97;31.98;98388.52;1797469;79;20850;-78
2021/06/15 08:23:30;;;;;;;4.42;1.90;;;;;;;28.30;31.81;98385.59;1765850;80;20957;-78
2021/06/15 08:25:57;;;;;;;6.78;2.42;;;;;;;28.24;29.12;98387.11;1797592;79;20875;-78
2021/06/15 08:28:23;;;;;;;5.72;2.58;;;;;;;28.51;29.11;98383.52;1765825;80;20889;-78
2021/06/15 08:30:49;;;;;;;3.83;2.30;;;;;;;28.53;30.62;98386.70;1797451;79;21877;-78
2021/06/15 08:33:16;;;;;;;7.20;2.33;;;;;;;28.52;29.51;98390.69;1765768;80;20898;-77
2021/06/15 08:35:42;;;;;;;5.92;2.27;;;;;;;29.14;29.67;98382.80;1797170;79;20970;-77
2021/06/15 08:38:08;;;;;;;5.30;2.90;;;;;;;29.35;29.14;98378.67;1765881;80;20917;-77
2021/06/15 08:40:34;;;;;;;4.92;2.00;;;;;;;29.71;28.46;98371.76;1797260;79;20838;-78
2021/06/15 08:43:00;;;;;;;2.52;1.87;;;;;;;30.04;26.66;98379.73;1765902;80;21039;-78
2021/06/15 08:45:26;;;;;;;2.55;2.12;;;;;;;29.84;27.65;98373.57;1796885;79;21037;-78
2021/06/15 08:47:53;;;;;;;3.60;2.20;;;;;;;30.39;28.32;98371.11;1787995;80;21477;-78
2021/06/15 08:50:23;;;;;;;6.55;3.40;;;;;;;30.67;27.83;98373.65;1787926;79;20945;-78
2021/06/15 08:52:49;;;;;;;4.90;4.20;;;;;;;30.56;27.11;98376.45;1787416;79;21012;-78
2021/06/15 08:55:16;;;;;;;6.47;5.12;;;;;;;31.06;27.72;98370.09;1787685;80;21311;-78
2021/06/15 08:57:42;;;;;;;5.62;3.25;;;;;;;30.89;28.04;98368.17;1787781;80;21021;-78
2021/06/15 09:00:11;;;;;;;5.58;2.42;;;;;;;30.72;27.74;98370.45;1758657;80;21082;-78
2021/06/15 09:02:46;;;;;;;7.42;2.55;;;;;;;30.62;26.89;98366.46;1787933;80;21406;-78
2021/06/15 09:05:17;;;;;;;6.55;2.98;;;;;;;30.15;25.02;98376.95;1787488;80;20965;-78
2021/06/15 09:08:03;;;;;;;5.95;2.67;;;;;;;31.18;26.56;98368.81;1787511;80;21100;-78
2021/06/15 09:10:40;;;;;;;6.25;2.85;;;;;;;31.60;25.75;98370.56;1786229;80;21024;-77
2021/06/15 09:13:08;;;;;;;5.90;2.20;;;;;;;31.14;24.25;98362.45;1784866;80;20953;-78
2021/06/15 09:15:34;;;;;;;4.35;2.37;;;;;;;31.61;25.56;98365.75;1758733;80;20997;-78
2021/06/15 09:18:00;;;;;;;7.78;2.62;;;;;;;32.50;24.96;98362.98;1787897;80;21060;-78
2021/06/15 09:20:33;;;;;;;5.10;2.45;;;;;;;31.63;24.98;98364.16;1787579;80;21720;-78
2021/06/15 09:23:05;;;;;;;4.42;2.72;;;;;;;30.57;24.96;98368.27;1765058;80;21516;-78
2021/06/15 09:25:31;;;;;;;4.55;2.17;;;;;;;31.95;24.54;98363.10;1787602;80;20970;-77
2021/06/15 09:27:58;;;;;;;3.15;1.90;;;;;;;31.97;24.24;98367.10;1787982;80;21032;-77
2021/06/15 09:30:27;;;;;;;4.00;2.47;;;;;;;32.24;24.12;98367.84;1765164;81;21013;-77
2021/06/15 09:32:53;;;;;;;4.58;2.05;;;;;;;32.05;23.53;98370.64;1787796;80;21442;-77
2021/06/15 09:35:28;;;;;;;3.92;2.22;;;;;;;32.94;23.40;98359.87;1787670;79;20970;-77
2021/06/15 09:37:55;;;;;;;5.65;2.33;;;;;;;32.36;23.39;98365.14;1787990;80;21017;-78
2021/06/15 09:40:35;;;;;;;4.75;2.70;;;;;;;32.68;22.88;98362.77;1787817;80;20953;-78
2021/06/15 09:43:10;;;;;;;4.17;2.50;;;;;;;32.88;23.46;98360.14;1788007;80;21033;-78
2021/06/15 09:45:43;;;;;;;5.40;2.40;;;;;;;33.90;20.34;98349.23;1787474;80;21144;-78
2021/06/15 09:48:36;;;;;;;4.03;2.17;;;;;;;32.55;22.46;98355.49;1787457;80;21040;-78
2021/06/15 09:51:08;;;;;;;4.28;1.87;;;;;;;31.44;23.04;98357.68;1764770;81;20961;-77
2021/06/15 09:53:38;;;;;;;4.28;2.30;;;;;;;32.17;23.84;98355.30;1787807;80;20941;-78
2021/06/15 09:56:07;;;;;;;5.22;2.45;;;;;;;32.15;22.73;98352.13;1787664;80;20913;-78
2021/06/15 09:58:47;;;;;;;3.67;2.12;;;;;;;32.99;21.39;98345.38;1787761;80;21239;-78
2021/06/15 10:01:40;;;;;;;4.65;2.30;;;;;;;33.70;22.01;98343.53;1787384;80;20969;-77
2021/06/15 10:04:16;;;;;;;9.95;3.83;;;;;;;34.29;21.92;98342.13;1731387;80;20918;-78
2021/06/15 10:06:50;;;;;;;3.65;2.20;;;;;;;34.90;21.11;98341.74;1787838;80;20948;-77
2021/06/15 10:09:26;;;;;;;6.12;2.70;;;;;;;35.38;20.99;98336.84;1765065;80;21478;-78
2021/06/15 10:11:54;;;;;;;6.95;3.30;;;;;;;35.11;20.53;98327.17;1765396;81;20981;-78
2021/06/15 10:14:21;;;;;;;;;;;;;;;35.66;20.09;98328.95;1790281;80;20950;-78
2021/06/15 10:16:47;;;;;;;;;;;;;;;35.75;18.68;98320.05;1790473;80;20152;-78
2021/06/15 10:19:13;;;;;;;6.70;2.60;;;;;;;35.05;20.09;98321.91;1787787;79;20198;-78
2021/06/15 10:21:39;;;;;;;3.75;2.00;;;;;;;34.09;20.65;98326.61;1788005;80;20878;-78
2021/06/15 10:24:07;;;;;;;5.80;3.52;;;;;;;33.24;20.56;98324.55;1773214;80;21026;-78
2021/06/15 10:26:33;;;;;;;4.37;2.80;;;;;;;34.47;20.68;98317.28;1787722;80;21013;-78
2021/06/15 10:29:00;;;;;;;3.50;2.40;;;;;;;35.07;19.27;98311.61;1787988;79;21020;-78
2021/06/15 10:31:29;;;;;;;3.08;1.90;;;;;;;35.18;19.68;98310.74;1787746;80;21072;-78
2021/06/15 10:33:55;;;;;;;5.10;2.17;;;;;;;34.71;18.58;98311.75;1759095;80;20953;-78
2021/06/15 10:36:46;;;;;;;5.87;2.05;;;;;;;35.17;19.49;98303.53;1787497;80;21165;-78
2021/06/15 10:39:39;;;;;;;2.30;1.92;;;;;;;35.31;19.52;98306.81;1758741;80;21405;-78
2021/06/15 10:42:14;;;;;;;7.50;2.30;;;;;;;34.33;19.86;98304.25;1788085;80;20970;-78
2021/06/15 10:44:41;;;;;;;3.27;2.10;;;;;;;34.67;19.99;98294.14;1765039;80;20973;-78
2021/06/15 10:47:10;;;;;;;3.55;2.00;;;;;;;35.50;19.76;98302.35;1794965;79;20917;-78
2021/06/15 10:49:59;;;;;;;3.02;1.90;;;;;;;33.99;19.59;98295.28;1767776;80;21057;-78
2021/06/15 10:52:26;;;;;;;4.03;1.87;;;;;;;34.35;19.38;98300.39;1799714;79;21008;-77
2021/06/15 10:54:52;;;;;;;3.25;2.00;;;;;;;34.68;19.61;98297.12;1768116;80;21414;-77
2021/06/15 10:57:25;;;;;;;3.80;1.72;;;;;;;35.39;19.02;98291.16;1799346;79;21489;-77
2021/06/15 11:00:13;;;;;;;5.67;2.05;;;;;;;34.57;18.91;98294.37;1778165;80;21532;-78
2021/06/15 11:02:41;;;;;;;3.83;2.02;;;;;;;35.68;18.41;98289.22;1799440;79;21804;-77
2021/06/15 11:05:45;;;;;;;4.03;1.72;;;;;;;35.75;18.86;98293.27;1768004;80;28266;-77
2021/06/15 11:08:23;;;;;;;3.33;1.95;;;;;;;34.65;18.78;98293.00;1799470;79;21147;-78
2021/06/15 11:10:54;;;;;;;4.10;2.30;;;;;;;35.27;19.15;98289.81;1767943;80;21063;-77
2021/06/15 11:13:41;;;;;;;5.47;1.98;;;;;;;35.84;18.98;98291.23;1799380;79;21401;-78
2021/06/15 11:16:09;;;;;;;3.10;2.15;;;;;;;35.57;18.78;98287.30;1768179;81;21067;-77
2021/06/15 11:18:35;;;;;;;3.52;1.70;;;;;;;35.35;19.06;98278.55;1797566;79;20961;-77
2021/06/15 11:21:18;;;;;;;3.42;1.82;;;;;;;35.06;18.96;98279.85;1768056;81;20877;-77
2021/06/15 11:23:44;;;;;;;2.92;1.77;;;;;;;34.00;20.08;98274.38;1798594;79;21307;-77
2021/06/15 11:26:14;;;;;;;3.98;1.82;;;;;;;34.81;19.48;98276.78;1768032;81;20952;-77
2021/06/15 11:28:47;;;;;;;2.67;1.90;;;;;;;33.93;19.40;98266.89;1799318;79;21358;-78
2021/06/15 11:31:26;;;;;;;6.62;2.08;;;;;;;34.17;19.93;98275.44;1766784;80;21339;-78
2021/06/15 11:34:06;;;;;;;4.12;2.25;;;;;;;34.21;19.89;98267.74;1799284;79;21005;-77
2021/06/15 11:36:50;;;;;;;7.33;1.92;;;;;;;34.61;19.55;98260.73;1780670;80;21387;-78
2021/06/15 11:39:27;;;;;;;6.03;2.00;;;;;;;32.98;20.06;98255.97;1783080;80;21319;-78
2021/06/15 11:42:20;;;;;;;5.05;1.92;;;;;;;33.12;20.49;98258.58;1758613;80;21366;-78
2021/06/15 11:44:56;;;;;;;3.12;1.80;;;;;;;33.67;20.28;98262.89;1767889;80;21043;-78
2021/06/15 11:47:28;;;;;;;4.15;2.08;;;;;;;33.85;20.05;98252.16;1750100;81;21380;-77
2021/06/15 11:50:21;;;;;;;4.78;1.80;;;;;;;34.14;19.54;98261.47;1787435;80;20962;-78